Terminal Aerodrome Forecast
Issued by NWS

Home | Current Version | Previous Version | Text Only | Print | Product List | Glossary On
Versions: 1 2 3 4 5 6 7 8 9 10 11 12
000
FTUS42 TJSJ 202344
TAFIST
TAF
TIST 202344Z 2100/2124 08012KT P6SM VCSH FEW025 SCT035
      TEMPO 2100/2104 RA BKN030
     FM211300 10010G18KT P6SM VCSH FEW025 SCT035
     FM212300 09008KT P6SM FEW025=

USA.gov is the U.S. government's official web portal to all federal, state and local government web resources and services.